createdAt,value
2023-04-15T00:03:48.737Z,98851.66
2023-04-15T00:07:50.569Z,98853.56
2023-04-15T00:11:52.769Z,98840.94
2023-04-15T00:15:54.390Z,98849.41
2023-04-15T00:19:56.022Z,98839.56
2023-04-15T00:23:57.666Z,98839.44
2023-04-15T00:27:59.553Z,98840.50
2023-04-15T00:32:01.453Z,98830.66
2023-04-15T00:36:03.834Z,98833.66
2023-04-15T00:40:06.431Z,98830.53
2023-04-15T00:44:08.314Z,98827.22
2023-04-15T00:48:10.799Z,98818.66
2023-04-15T00:52:13.364Z,98811.78
2023-04-15T00:56:15.787Z,98813.09
2023-04-15T01:00:18.318Z,98815.50
2023-04-15T01:04:21.349Z,98815.97
2023-04-15T01:08:23.116Z,98814.56
2023-04-15T01:12:26.970Z,98826.53
2023-04-15T01:16:28.890Z,98818.59
2023-04-15T01:20:30.683Z,98824.28
2023-04-15T01:24:34.190Z,98837.97
2023-04-15T01:28:38.642Z,98833.81
2023-04-15T01:32:40.372Z,98827.19
2023-04-15T01:36:42.205Z,98827.31
2023-04-15T01:40:43.923Z,98822.00
2023-04-15T01:44:45.580Z,98826.03
2023-04-15T01:48:47.579Z,98817.00
2023-04-15T01:52:49.324Z,98818.88
2023-04-15T01:56:52.241Z,98820.78
2023-04-15T02:00:53.985Z,98822.09
2023-04-15T02:04:55.867Z,98826.75
2023-04-15T02:08:59.285Z,98825.69
2023-04-15T02:13:01.359Z,98825.69
2023-04-15T02:17:07.538Z,98824.00
2023-04-15T02:21:12.780Z,98817.13
2023-04-15T02:25:16.973Z,98818.44
2023-04-15T02:29:18.634Z,98821.06
2023-04-15T02:33:21.884Z,98821.78
2023-04-15T02:37:24.902Z,98816.78
2023-04-15T02:41:28.586Z,98821.44
2023-04-15T02:45:30.879Z,98836.38
2023-04-15T02:49:37.291Z,98832.00
2023-04-15T02:53:38.908Z,98838.56
2023-04-15T02:57:41.349Z,98835.91
2023-04-15T03:01:44.998Z,98833.56
2023-04-15T03:05:46.810Z,98833.19
2023-04-15T03:09:48.608Z,98841.50
2023-04-15T03:13:50.307Z,98843.03
2023-04-15T03:18:05.500Z,98845.25
2023-04-15T03:22:09.084Z,98844.66
2023-04-15T03:26:10.874Z,98841.78
2023-04-15T03:30:13.609Z,98834.06
2023-04-15T03:34:16.208Z,98837.25
2023-04-15T03:38:18.677Z,98835.72
2023-04-15T03:42:20.563Z,98838.91
2023-04-15T03:46:22.258Z,98837.22
2023-04-15T03:50:23.950Z,98843.53
2023-04-15T03:54:25.773Z,98842.47
2023-04-15T03:58:27.445Z,98841.84
2023-04-15T04:02:29.223Z,98839.72
2023-04-15T04:06:31.306Z,98836.53
2023-04-15T04:10:32.989Z,98821.81
2023-04-15T04:14:34.703Z,98831.22
2023-04-15T04:18:36.560Z,98839.97
2023-04-15T04:22:40.172Z,98844.41
2023-04-15T04:26:41.880Z,98849.84
2023-04-15T04:30:43.607Z,98847.34
2023-04-15T04:34:45.692Z,98846.75
2023-04-15T04:38:47.597Z,98846.50
2023-04-15T04:42:49.334Z,98853.16
2023-04-15T04:46:51.106Z,98848.91
2023-04-15T04:50:53.211Z,98850.94
2023-04-15T04:54:54.895Z,98857.34
2023-04-15T04:58:56.661Z,98848.69
2023-04-15T05:02:59.026Z,98858.09
2023-04-15T05:07:01.292Z,98855.38
2023-04-15T05:11:03.697Z,98858.44
2023-04-15T05:15:07.064Z,98858.81
2023-04-15T05:19:08.758Z,98858.34
2023-04-15T05:23:10.519Z,98874.09
2023-04-15T05:27:12.347Z,98877.06
2023-04-15T05:31:14.412Z,98879.06
2023-04-15T05:35:16.324Z,98876.81
2023-04-15T05:39:18.142Z,98877.38
2023-04-15T05:43:19.824Z,98883.19
2023-04-15T05:47:21.618Z,98878.44
2023-04-15T05:51:23.318Z,98876.69
2023-04-15T05:55:25.071Z,98883.84
2023-04-15T05:59:27.344Z,98887.66
2023-04-15T06:03:29.775Z,98883.06
2023-04-15T06:07:31.635Z,98887.44
2023-04-15T06:11:33.455Z,98892.44
2023-04-15T06:15:35.637Z,98900.16
2023-04-15T06:19:37.706Z,98910.88
2023-04-15T06:23:41.316Z,98911.78
2023-04-15T06:27:43.524Z,98913.34
2023-04-15T06:31:45.241Z,98919.13
2023-04-15T06:35:47.753Z,98920.56
2023-04-15T06:39:49.406Z,98925.69
2023-04-15T06:43:51.591Z,98932.56
2023-04-15T06:47:53.425Z,98935.69
2023-04-15T06:51:55.208Z,98933.31
2023-04-15T06:55:57.106Z,98935.00
2023-04-15T06:59:58.903Z,98938.81
2023-04-15T07:04:00.651Z,98945.72
2023-04-15T07:08:02.614Z,98937.81
2023-04-15T07:12:04.547Z,98933.06
2023-04-15T07:16:06.364Z,98940.38
2023-04-15T07:20:08.699Z,98935.31
2023-04-15T07:24:10.739Z,98934.84
2023-04-15T07:28:12.386Z,98939.75
2023-04-15T07:32:14.063Z,98935.47
2023-04-15T07:36:15.908Z,98941.97
2023-04-15T07:40:17.924Z,98941.03
2023-04-15T07:44:19.744Z,98931.59
2023-04-15T07:48:21.541Z,98934.75
2023-04-15T07:52:23.401Z,98942.88
2023-04-15T07:56:25.239Z,98937.72
2023-04-15T08:00:27.093Z,98931.78
2023-04-15T08:04:31.293Z,98940.06
2023-04-15T08:08:33.406Z,98936.53
2023-04-15T08:12:37.348Z,98944.81
2023-04-15T08:16:39.271Z,98945.97
2023-04-15T08:20:41.470Z,98941.84
2023-04-15T08:24:44.818Z,98948.47
2023-04-15T08:28:46.978Z,98940.72
2023-04-15T08:32:51.557Z,98947.06
2023-04-15T08:36:54.042Z,98946.50
2023-04-15T08:40:58.740Z,98948.41
2023-04-15T08:45:01.991Z,98947.47
2023-04-15T08:49:05.316Z,98950.47
2023-04-15T08:53:07.791Z,98954.06
2023-04-15T08:57:09.989Z,98949.56
2023-04-15T09:01:14.528Z,98952.97
2023-04-15T09:05:17.194Z,98948.69
2023-04-15T09:09:19.004Z,98962.53
2023-04-15T09:13:20.678Z,98957.19
2023-04-15T09:17:22.498Z,98962.13
2023-04-15T09:21:25.040Z,98969.22
2023-04-15T09:25:28.438Z,98966.66
2023-04-15T09:29:30.389Z,98977.97
2023-04-15T09:33:32.143Z,98974.63
2023-04-15T09:37:38.487Z,98983.28
2023-04-15T09:41:41.892Z,98971.97
2023-04-15T09:45:54.176Z,98990.59
2023-04-15T09:49:57.894Z,98975.97
2023-04-15T09:53:59.921Z,98983.25
2023-04-15T09:58:01.803Z,98983.81
2023-04-15T10:02:06.821Z,98986.81
2023-04-15T10:06:10.212Z,98991.53
2023-04-15T10:10:13.047Z,98991.91
2023-04-15T10:14:16.321Z,99000.81
2023-04-15T10:18:24.450Z,99004.72
2023-04-15T10:22:28.318Z,99011.75
2023-04-15T10:26:31.142Z,99024.47
2023-04-15T10:30:33.794Z,99011.84
2023-04-15T10:34:36.394Z,99020.97
2023-04-15T10:38:41.940Z,99021.72
2023-04-15T10:42:43.754Z,99028.03
2023-04-15T10:46:45.956Z,99041.06
2023-04-15T10:51:03.978Z,99041.53
2023-04-15T10:55:19.421Z,99035.91
2023-04-15T10:59:22.785Z,99042.75
2023-04-15T11:03:41.925Z,99042.59
2023-04-15T11:07:44.904Z,99035.84
2023-04-15T11:12:10.079Z,99044.94
2023-04-15T11:16:12.034Z,99041.78
2023-04-15T11:20:16.164Z,99037.72
2023-04-15T11:24:27.435Z,99043.91
2023-04-15T11:28:31.121Z,99047.94
2023-04-15T11:32:33.031Z,99051.53
2023-04-15T11:36:35.405Z,99053.34
2023-04-15T11:40:37.887Z,99050.72
2023-04-15T11:44:39.697Z,99063.69
2023-04-15T11:48:46.955Z,99061.16
2023-04-15T11:53:00.098Z,99059.47
2023-04-15T11:57:03.505Z,99057.63
2023-04-15T12:01:06.485Z,99055.31
2023-04-15T12:05:08.869Z,99061.56
2023-04-15T12:09:14.619Z,99064.06
2023-04-15T12:13:19.576Z,99060.00
2023-04-15T12:17:23.746Z,99070.34
2023-04-15T12:21:26.797Z,99067.44
2023-04-15T12:25:37.476Z,99070.38
2023-04-15T12:29:40.770Z,99079.09
2023-04-15T12:33:42.825Z,99089.88
2023-04-15T12:37:44.722Z,99096.56
2023-04-15T12:41:46.460Z,99105.28
2023-04-15T12:45:49.822Z,99107.13
2023-04-15T12:49:51.974Z,99125.16
2023-04-15T12:53:54.006Z,99144.88
2023-04-15T12:57:55.809Z,99157.63
2023-04-15T13:01:58.064Z,99166.06
2023-04-15T13:06:02.321Z,99175.00
2023-04-15T13:10:05.042Z,99178.38
2023-04-15T13:14:08.654Z,99179.44
2023-04-15T13:18:10.973Z,99192.91
2023-04-15T13:22:13.490Z,99179.53
2023-04-15T13:26:16.455Z,99197.06
2023-04-15T13:30:21.911Z,99198.84
2023-04-15T13:34:24.496Z,99198.56
2023-04-15T13:38:26.349Z,99205.47
2023-04-15T13:42:30.141Z,99210.75
2023-04-15T13:46:31.892Z,99213.47
2023-04-15T13:50:33.554Z,99207.97
2023-04-15T13:54:37.365Z,99215.44
2023-04-15T13:58:41.225Z,99223.72
2023-04-15T14:02:43.318Z,99216.28
2023-04-15T14:06:46.193Z,99229.25
2023-04-15T14:10:50.454Z,99230.91
2023-04-15T14:14:52.188Z,99234.22
2023-04-15T14:18:55.170Z,99243.00
2023-04-15T14:22:56.885Z,99248.97
2023-04-15T14:26:59.491Z,99238.19
2023-04-15T14:31:01.623Z,99257.47
2023-04-15T14:35:04.485Z,99250.28
2023-04-15T14:39:07.053Z,99265.38
2023-04-15T14:43:09.877Z,99270.00
2023-04-15T14:47:11.608Z,99280.97
2023-04-15T14:51:13.459Z,99283.31
2023-04-15T14:55:15.979Z,99299.72
2023-04-15T14:59:18.030Z,99299.06
2023-04-15T15:03:19.856Z,99299.31
2023-04-15T15:07:21.722Z,99310.03
2023-04-15T15:11:23.452Z,99320.69
2023-04-15T15:15:29.069Z,99325.75
2023-04-15T15:19:31.524Z,99319.84
2023-04-15T15:23:33.500Z,99325.78
2023-04-15T15:27:37.706Z,99328.41
2023-04-15T15:31:40.315Z,99335.72
2023-04-15T15:35:42.947Z,99340.25
2023-04-15T15:39:46.745Z,99338.09
2023-04-15T15:43:48.626Z,99354.59
2023-04-15T15:47:52.079Z,99347.94
2023-04-15T15:51:53.855Z,99355.28
2023-04-15T15:55:55.755Z,99353.81
2023-04-15T16:00:10.392Z,99371.16
2023-04-15T16:04:14.755Z,99378.50
2023-04-15T16:08:17.168Z,99379.50
2023-04-15T16:12:18.878Z,99386.53
2023-04-15T16:16:20.707Z,99387.63
2023-04-15T16:20:22.909Z,99385.22
2023-04-15T16:24:24.855Z,99398.53
2023-04-15T16:28:27.486Z,99398.47
2023-04-15T16:32:31.651Z,99413.06
2023-04-15T16:36:38.416Z,99401.66
2023-04-15T16:40:41.808Z,99408.88
2023-04-15T16:44:43.590Z,99413.13
2023-04-15T16:49:12.135Z,99421.34
2023-04-15T16:53:16.377Z,99423.00
2023-04-15T16:57:20.235Z,99430.19
2023-04-15T17:01:27.538Z,99429.00
2023-04-15T17:05:31.268Z,99433.25
2023-04-15T17:09:35.059Z,99439.63
2023-04-15T17:13:36.950Z,99443.94
2023-04-15T17:17:39.459Z,99453.28
2023-04-15T17:21:42.172Z,99451.94
2023-04-15T17:25:43.913Z,99459.00
2023-04-15T17:29:45.731Z,99454.81
2023-04-15T17:34:00.404Z,99464.63
2023-04-15T17:38:09.226Z,99469.88
2023-04-15T17:42:11.751Z,99472.88
2023-04-15T17:46:14.309Z,99471.78
2023-04-15T17:50:16.447Z,99489.69
2023-04-15T17:54:18.135Z,99497.59
2023-04-15T17:58:20.641Z,99507.25
2023-04-15T18:02:24.031Z,99508.31
2023-04-15T18:06:26.761Z,99514.41
2023-04-15T18:10:29.504Z,99512.75
2023-04-15T18:14:35.019Z,99524.56
2023-04-15T18:18:36.978Z,99524.34
2023-04-15T18:22:38.714Z,99535.31
2023-04-15T18:26:40.463Z,99546.03
2023-04-15T18:30:42.123Z,99553.59
2023-04-15T18:34:44.013Z,99556.44
2023-04-15T18:38:46.383Z,99559.09
2023-04-15T18:42:48.164Z,99568.88
2023-04-15T18:46:50.111Z,99569.47
2023-04-15T18:50:54.279Z,99575.91
2023-04-15T18:54:56.114Z,99578.88
2023-04-15T18:59:08.836Z,99583.53
2023-04-15T19:03:19.585Z,99591.56
2023-04-15T19:07:23.158Z,99592.97
2023-04-15T19:11:25.759Z,99595.84
2023-04-15T19:15:27.601Z,99612.22
2023-04-15T19:19:30.414Z,99600.97
2023-04-15T19:23:32.749Z,99612.22
2023-04-15T19:27:34.680Z,99611.75
2023-04-15T19:31:37.525Z,99617.72
2023-04-15T19:35:42.827Z,99624.88
2023-04-15T19:39:44.661Z,99632.63
2023-04-15T19:43:46.631Z,99633.44
2023-04-15T19:47:49.401Z,99641.69
2023-04-15T19:51:51.417Z,99639.19
2023-04-15T19:55:53.062Z,99645.75
2023-04-15T19:59:54.766Z,99642.28
2023-04-15T20:03:57.829Z,99646.47
2023-04-15T20:08:01.314Z,99641.94
2023-04-15T20:12:44.873Z,99647.03
2023-04-15T20:16:25.312Z,99644.69
2023-04-15T20:20:27.168Z,99648.13
2023-04-15T20:24:29.060Z,99655.53
2023-04-15T20:28:30.929Z,99656.97
2023-04-15T20:32:36.092Z,99652.91
2023-04-15T20:36:38.603Z,99655.28
2023-04-15T20:40:41.766Z,99654.94
2023-04-15T20:44:43.814Z,99651.97
2023-04-15T20:48:45.737Z,99665.91
2023-04-15T20:52:47.362Z,99669.97
2023-04-15T20:56:49.134Z,99665.09
2023-04-15T21:00:51.338Z,99670.31
2023-04-15T21:04:55.410Z,99675.00
2023-04-15T21:08:58.798Z,99677.63
2023-04-15T21:13:02.288Z,99672.16
2023-04-15T21:17:09.248Z,99685.63
2023-04-15T21:21:12.041Z,99686.72
2023-04-15T21:25:13.767Z,99682.19
2023-04-15T21:29:16.805Z,99692.56
2023-04-15T21:33:20.953Z,99694.13
2023-04-15T21:37:22.770Z,99697.69
2023-04-15T21:41:24.480Z,99701.28
2023-04-15T21:45:26.568Z,99711.28
2023-04-15T21:49:28.313Z,99717.88
2023-04-15T21:53:30.037Z,99721.09
2023-04-15T21:57:31.842Z,99728.25
2023-04-15T22:01:34.969Z,99730.66
2023-04-15T22:05:36.981Z,99734.44
2023-04-15T22:09:38.616Z,99738.28
2023-04-15T22:13:40.295Z,99736.59
2023-04-15T22:17:42.035Z,99741.84
2023-04-15T22:21:43.933Z,99749.13
2023-04-15T22:25:46.159Z,99745.34
2023-04-15T22:29:47.967Z,99759.63
2023-04-15T22:33:49.694Z,99765.13
2023-04-15T22:37:52.593Z,99766.09
2023-04-15T22:41:54.379Z,99772.88
2023-04-15T22:45:56.862Z,99777.78
2023-04-15T22:50:01.030Z,99778.25
2023-04-15T22:54:03.135Z,99784.78
2023-04-15T22:58:04.778Z,99786.22
2023-04-15T23:02:40.427Z,99796.25
2023-04-15T23:06:42.739Z,99798.47
2023-04-15T23:10:44.788Z,99794.06
2023-04-15T23:14:49.640Z,99791.31
2023-04-15T23:18:51.510Z,99798.25
2023-04-15T23:22:53.209Z,99806.25
2023-04-15T23:26:55.290Z,99796.81
2023-04-15T23:30:59.805Z,99798.59
2023-04-15T23:35:02.294Z,99808.97
2023-04-15T23:39:04.391Z,99804.69
2023-04-15T23:43:06.168Z,99798.94
2023-04-15T23:47:07.832Z,99813.16
2023-04-15T23:51:09.459Z,99812.09
2023-04-15T23:55:11.232Z,99819.03
2023-04-15T23:59:12.894Z,99804.34
